Terminal Aerodrome Forecast
Issued by NWS

Home | Current Version | Previous Version | Text Only | Print | Product List | Glossary On
Versions: 1 2 3 4 5 6 7 8 9 10 11 12 13 14 15 16 17 18
000
FTUS41 KPBZ 242300
TAFBVI
TAF
KBVI 242329Z 2500/2524 26004KT P6SM SKC
     FM250600 23005KT P6SM BKN040
     FM251700 24012G20KT P6SM BKN035
      AMD NOT SKED 2501/2511=

USA.gov is the U.S. government's official web portal to all federal, state and local government web resources and services.